createdAt,value
2023-04-12T00:00:00.739Z,6.053772
2023-04-12T00:01:08.496Z,6.013489
2023-04-12T00:02:17.293Z,6.02356
2023-04-12T00:03:26.991Z,6.043701
2023-04-12T00:04:35.748Z,6.02356
2023-04-12T00:05:45.254Z,6.073914
2023-04-12T00:06:53.922Z,6.073914
2023-04-12T00:08:01.576Z,6.043701
2023-04-12T00:09:11.274Z,6.043701
2023-04-12T00:10:19.938Z,6.124268
2023-04-12T00:11:28.593Z,6.124268
2023-04-12T00:12:38.259Z,6.083984
2023-04-12T00:13:46.949Z,6.073914
2023-04-12T00:14:56.631Z,6.094055
2023-04-12T00:16:06.313Z,6.073914
2023-04-12T00:17:13.933Z,6.073914
2023-04-12T00:18:23.607Z,6.083984
2023-04-12T00:19:33.286Z,6.114197
2023-04-12T00:20:41.951Z,6.174622
2023-04-12T00:21:51.628Z,6.164551
2023-04-12T00:22:59.293Z,6.204834
2023-04-12T00:24:07.989Z,6.204834
2023-04-12T00:25:16.707Z,6.174622
2023-04-12T00:26:24.335Z,6.204834
2023-04-12T00:27:34.035Z,6.235046
2023-04-12T00:28:42.716Z,6.305542
2023-04-12T00:29:51.425Z,6.305542
2023-04-12T00:31:01.091Z,6.355896
2023-04-12T00:32:09.737Z,6.355896
2023-04-12T00:33:19.411Z,6.345825
2023-04-12T00:34:28.107Z,6.355896
2023-04-12T00:35:35.804Z,6.355896
2023-04-12T00:36:44.442Z,6.40625
2023-04-12T00:37:52.127Z,6.436462
2023-04-12T00:39:00.815Z,6.456604
2023-04-12T00:40:10.528Z,6.486816
2023-04-12T00:41:20.267Z,6.53717
2023-04-12T00:42:30.079Z,6.53717
2023-04-12T00:43:39.622Z,6.53717
2023-04-12T00:44:49.298Z,6.506958
2023-04-12T00:45:58.975Z,6.567383
2023-04-12T00:47:08.681Z,6.597595
2023-04-12T00:48:18.252Z,6.587524
2023-04-12T00:49:28.025Z,6.617737
2023-04-12T00:50:36.720Z,6.597595
2023-04-12T00:51:46.382Z,6.65802
2023-04-12T00:52:55.043Z,6.688232
2023-04-12T00:54:03.724Z,6.738586
2023-04-12T00:55:12.429Z,6.718445
2023-04-12T00:56:21.067Z,6.748657
2023-04-12T00:57:30.741Z,6.748657
2023-04-12T00:58:40.401Z,6.688232
2023-04-12T00:59:48.098Z,6.688232
2023-04-12T01:00:57.788Z,6.738586
2023-04-12T01:02:06.504Z,6.738586
2023-04-12T01:03:15.202Z,6.748657
2023-04-12T01:04:24.764Z,6.819153
2023-04-12T01:05:34.452Z,6.77887
2023-04-12T01:06:44.108Z,6.78894
2023-04-12T01:07:53.774Z,6.77887
2023-04-12T01:09:01.450Z,6.819153
2023-04-12T01:10:11.159Z,6.839294
2023-04-12T01:11:19.808Z,6.869507
2023-04-12T01:12:29.487Z,6.889648
2023-04-12T01:13:39.133Z,6.950073
2023-04-12T01:14:46.773Z,6.950073
2023-04-12T01:15:55.464Z,6.960144
2023-04-12T01:17:05.103Z,6.950073
2023-04-12T01:18:14.803Z,6.879578
2023-04-12T01:19:24.443Z,6.839294
2023-04-12T01:20:33.188Z,6.869507
2023-04-12T01:21:41.823Z,6.869507
2023-04-12T01:22:51.551Z,6.839294
2023-04-12T01:24:00.223Z,6.849365
2023-04-12T01:25:08.912Z,6.869507
2023-04-12T01:26:17.710Z,6.889648
2023-04-12T01:27:25.332Z,6.950073
2023-04-12T01:28:34.985Z,6.960144
2023-04-12T01:29:44.656Z,6.889648
2023-04-12T01:30:53.390Z,6.889648
2023-04-12T01:32:03.110Z,6.889648
2023-04-12T01:33:10.757Z,6.960144
2023-04-12T01:34:19.451Z,6.950073
2023-04-12T01:35:29.133Z,6.950073
2023-04-12T01:36:37.784Z,6.990356
2023-04-12T01:37:47.444Z,6.970215
2023-04-12T01:38:56.122Z,6.960144
2023-04-12T01:40:04.827Z,6.960144
2023-04-12T01:41:14.558Z,6.929932
2023-04-12T01:42:22.215Z,6.990356
2023-04-12T01:43:30.880Z,7.060852
2023-04-12T01:44:40.541Z,7.101135
2023-04-12T01:45:48.270Z,7.060852
2023-04-12T01:46:57.952Z,7.101135
2023-04-12T01:48:07.772Z,7.03064
2023-04-12T01:49:17.335Z,7.141418
2023-04-12T01:50:26.039Z,7.131348
2023-04-12T01:51:35.705Z,7.181702
2023-04-12T01:52:44.360Z,7.201843
2023-04-12T01:53:54.118Z,7.171631
2023-04-12T01:55:02.707Z,7.171631
2023-04-12T01:56:10.420Z,7.181702
2023-04-12T01:57:20.120Z,7.211914
2023-04-12T01:58:27.785Z,7.211914
2023-04-12T01:59:36.492Z,7.232056
2023-04-12T02:00:46.202Z,7.28241
2023-04-12T02:01:54.925Z,7.322693
2023-04-12T02:03:04.718Z,7.332764
2023-04-12T02:04:13.291Z,7.352905
2023-04-12T02:05:21.883Z,7.332764
2023-04-12T02:06:31.620Z,7.312622
2023-04-12T02:07:41.280Z,7.252197
2023-04-12T02:08:49.980Z,7.181702
2023-04-12T02:09:59.638Z,7.171631
2023-04-12T02:11:09.352Z,7.070923
2023-04-12T02:12:19.006Z,7.101135
2023-04-12T02:13:27.776Z,7.111206
2023-04-12T02:14:35.429Z,7.020569
2023-04-12T02:15:45.153Z,7.03064
2023-04-12T02:16:52.892Z,7.03064
2023-04-12T02:18:01.646Z,6.960144
2023-04-12T02:19:11.206Z,6.889648
2023-04-12T02:20:18.874Z,6.869507
2023-04-12T02:21:28.582Z,6.879578
2023-04-12T02:22:38.390Z,6.929932
2023-04-12T02:23:45.914Z,6.889648
2023-04-12T02:24:55.591Z,6.929932
2023-04-12T02:26:03.257Z,6.960144
2023-04-12T02:27:12.939Z,6.970215
2023-04-12T02:28:22.608Z,6.960144
2023-04-12T02:29:30.316Z,6.889648
2023-04-12T02:30:40.047Z,6.929932
2023-04-12T02:31:47.699Z,6.869507
2023-04-12T02:32:56.409Z,6.869507
2023-04-12T02:34:06.099Z,6.748657
2023-04-12T02:35:13.764Z,6.768799
2023-04-12T02:36:23.446Z,6.768799
2023-04-12T02:37:33.137Z,6.768799
2023-04-12T02:38:41.845Z,6.78894
2023-04-12T02:39:51.504Z,6.77887
2023-04-12T02:41:01.194Z,6.819153
2023-04-12T02:42:08.846Z,6.78894
2023-04-12T02:43:18.546Z,6.748657
2023-04-12T02:44:27.216Z,6.718445
2023-04-12T02:45:35.891Z,6.688232
2023-04-12T02:46:45.610Z,6.637878
2023-04-12T02:47:53.346Z,6.65802
2023-04-12T02:49:02.985Z,6.688232
2023-04-12T02:50:11.667Z,6.637878
2023-04-12T02:51:19.328Z,6.597595
2023-04-12T02:52:29.063Z,6.627808
2023-04-12T02:53:37.705Z,6.637878
2023-04-12T02:54:47.389Z,6.668091
2023-04-12T02:55:57.046Z,6.637878
2023-04-12T02:57:05.734Z,6.637878
2023-04-12T02:58:15.433Z,6.65802
2023-04-12T02:59:24.110Z,6.65802
2023-04-12T03:00:32.798Z,6.627808
2023-04-12T03:01:42.534Z,6.637878
2023-04-12T03:02:50.296Z,6.65802
2023-04-12T03:03:59.132Z,6.65802
2023-04-12T03:05:08.493Z,6.668091
2023-04-12T03:06:16.296Z,6.668091
2023-04-12T03:07:25.976Z,6.688232
2023-04-12T03:08:34.716Z,6.668091
2023-04-12T03:09:43.367Z,6.738586
2023-04-12T03:10:53.080Z,6.668091
2023-04-12T03:12:02.741Z,6.768799
2023-04-12T03:13:11.418Z,6.738586
2023-04-12T03:14:21.118Z,6.738586
2023-04-12T03:15:30.772Z,6.748657
2023-04-12T03:16:40.498Z,6.698303
2023-04-12T03:17:49.434Z,6.688232
2023-04-12T03:18:57.997Z,6.698303
2023-04-12T03:20:07.609Z,6.637878
2023-04-12T03:21:15.295Z,6.718445
2023-04-12T03:22:23.987Z,6.768799
2023-04-12T03:23:33.683Z,6.718445
2023-04-12T03:24:41.368Z,6.668091
2023-04-12T03:25:51.046Z,6.718445
2023-04-12T03:26:59.765Z,6.698303
2023-04-12T03:28:07.445Z,6.77887
2023-04-12T03:29:17.059Z,6.809082
2023-04-12T03:30:25.729Z,6.78894
2023-04-12T03:31:34.542Z,6.78894
2023-04-12T03:32:44.190Z,6.78894
2023-04-12T03:33:52.850Z,6.809082
2023-04-12T03:35:02.540Z,6.65802
2023-04-12T03:36:11.215Z,6.557312
2023-04-12T03:37:19.274Z,6.567383
2023-04-12T03:38:28.960Z,6.627808
2023-04-12T03:39:37.676Z,6.668091
2023-04-12T03:40:47.379Z,6.688232
2023-04-12T03:41:57.089Z,6.688232
2023-04-12T03:43:04.855Z,6.738586
2023-04-12T03:44:14.542Z,6.718445
2023-04-12T03:45:23.252Z,6.718445
2023-04-12T03:46:32.032Z,6.688232
2023-04-12T03:47:40.803Z,6.587524
2023-04-12T03:48:49.459Z,6.617737
2023-04-12T03:50:09.530Z,6.668091
2023-04-12T03:51:06.792Z,6.668091
2023-04-12T03:52:15.517Z,6.627808
2023-04-12T03:53:24.230Z,6.627808
2023-04-12T03:54:33.928Z,6.587524
2023-04-12T03:55:41.617Z,6.617737
2023-04-12T03:56:50.432Z,6.617737
2023-04-12T03:58:00.091Z,6.597595
2023-04-12T03:59:07.888Z,6.617737
2023-04-12T04:00:17.567Z,6.587524
2023-04-12T04:01:27.288Z,6.637878
2023-04-12T04:02:39.509Z,6.65802
2023-04-12T04:03:49.460Z,6.637878
2023-04-12T04:04:57.387Z,6.567383
2023-04-12T04:06:06.064Z,6.587524
2023-04-12T04:07:16.001Z,6.476746
2023-04-12T04:08:24.714Z,6.486816
2023-04-12T04:09:34.447Z,6.597595
2023-04-12T04:10:43.219Z,6.597595
2023-04-12T04:11:51.237Z,6.65802
2023-04-12T04:13:01.035Z,6.668091
2023-04-12T04:14:09.834Z,6.627808
2023-04-12T04:15:19.594Z,6.486816
2023-04-12T04:16:29.281Z,6.436462
2023-04-12T04:17:37.108Z,6.40625
2023-04-12T04:18:46.731Z,6.416321
2023-04-12T04:19:55.648Z,6.446533
2023-04-12T04:21:04.419Z,6.456604
2023-04-12T04:22:13.215Z,6.386108
2023-04-12T04:23:21.924Z,6.305542
2023-04-12T04:24:30.602Z,6.345825
2023-04-12T04:25:39.312Z,6.325684
2023-04-12T04:26:47.992Z,6.325684
2023-04-12T04:27:57.745Z,6.345825
2023-04-12T04:29:06.458Z,6.376038
2023-04-12T04:30:14.141Z,6.436462
2023-04-12T04:31:23.816Z,6.436462
2023-04-12T04:32:33.535Z,6.506958
2023-04-12T04:33:43.167Z,6.506958
2023-04-12T04:34:52.832Z,6.476746
2023-04-12T04:36:01.599Z,6.416321
2023-04-12T04:37:11.205Z,6.295471
2023-04-12T04:38:19.908Z,6.436462
2023-04-12T04:39:28.666Z,6.567383
2023-04-12T04:40:37.361Z,6.53717
2023-04-12T04:41:45.056Z,6.486816
2023-04-12T04:42:53.764Z,6.506958
2023-04-12T04:44:03.484Z,6.557312
2023-04-12T04:45:11.173Z,6.517029
2023-04-12T04:46:21.097Z,6.446533
2023-04-12T04:47:30.750Z,6.40625
2023-04-12T04:48:39.363Z,6.476746
2023-04-12T04:49:49.065Z,6.476746
2023-04-12T04:50:56.811Z,6.456604
2023-04-12T04:52:05.488Z,6.436462
2023-04-12T04:53:15.242Z,6.305542
2023-04-12T04:54:24.004Z,6.325684
2023-04-12T04:55:33.691Z,6.345825
2023-04-12T04:56:42.386Z,6.376038
2023-04-12T04:57:52.116Z,6.446533
2023-04-12T04:59:02.066Z,6.486816
2023-04-12T05:00:09.441Z,6.476746
2023-04-12T05:01:17.190Z,6.506958
2023-04-12T05:02:26.913Z,6.486816
2023-04-12T05:03:34.616Z,6.486816
2023-04-12T05:04:44.253Z,6.436462
2023-04-12T05:05:52.971Z,6.587524
2023-04-12T05:07:01.681Z,6.587524
2023-04-12T05:08:11.397Z,6.446533
2023-04-12T05:09:19.120Z,6.386108
2023-04-12T05:10:27.818Z,6.436462
2023-04-12T05:11:37.557Z,6.517029
2023-04-12T05:12:45.234Z,6.567383
2023-04-12T05:13:54.965Z,6.486816
2023-04-12T05:15:11.391Z,6.456604
2023-04-12T05:16:14.382Z,6.476746
2023-04-12T05:17:24.090Z,6.65802
2023-04-12T05:18:32.795Z,6.718445
2023-04-12T05:19:41.544Z,6.77887
2023-04-12T05:20:51.251Z,6.65802
2023-04-12T05:21:58.923Z,6.627808
2023-04-12T05:23:08.666Z,6.698303
2023-04-12T05:24:18.393Z,6.557312
2023-04-12T05:25:26.081Z,6.476746
2023-04-12T05:26:34.799Z,6.325684
2023-04-12T05:27:43.559Z,6.345825
2023-04-12T05:28:53.246Z,6.325684
2023-04-12T05:30:02.948Z,6.376038
2023-04-12T05:31:10.658Z,6.436462
2023-04-12T05:32:20.485Z,6.53717
2023-04-12T05:33:29.887Z,6.517029
2023-04-12T05:34:37.957Z,6.446533
2023-04-12T05:35:47.682Z,6.456604
2023-04-12T05:36:57.402Z,6.476746
2023-04-12T05:38:06.108Z,6.557312
2023-04-12T05:39:14.849Z,6.506958
2023-04-12T05:40:24.542Z,6.567383
2023-04-12T05:41:34.259Z,6.557312
2023-04-12T05:42:42.965Z,6.53717
2023-04-12T05:43:50.702Z,6.567383
2023-04-12T05:44:59.395Z,6.557312
2023-04-12T05:46:09.168Z,6.557312
2023-04-12T05:47:16.826Z,6.517029
2023-04-12T05:48:26.558Z,6.53717
2023-04-12T05:49:36.253Z,6.567383
2023-04-12T05:50:45.020Z,6.567383
2023-04-12T05:51:54.759Z,6.65802
2023-04-12T05:53:04.500Z,6.698303
2023-04-12T05:54:13.329Z,6.65802
2023-04-12T05:55:23.024Z,6.627808
2023-04-12T05:56:31.820Z,6.78894
2023-04-12T05:57:41.707Z,6.78894
2023-04-12T05:58:50.484Z,6.718445
2023-04-12T05:59:58.171Z,6.718445
2023-04-12T06:01:07.897Z,6.637878
2023-04-12T06:02:15.623Z,6.637878
2023-04-12T06:03:25.451Z,6.668091
2023-04-12T06:04:49.198Z,6.768799
2023-04-12T06:05:45.725Z,6.849365
2023-04-12T06:06:55.391Z,6.950073
2023-04-12T06:08:04.142Z,6.819153
2023-04-12T06:09:12.798Z,6.768799
2023-04-12T06:10:22.467Z,6.809082
2023-04-12T06:11:31.157Z,6.929932
2023-04-12T06:12:39.838Z,6.889648
2023-04-12T06:13:49.554Z,6.950073
2023-04-12T06:14:57.247Z,7.000427
2023-04-12T06:16:06.963Z,7.020569
2023-04-12T06:17:15.658Z,6.929932
2023-04-12T06:18:23.356Z,6.929932
2023-04-12T06:19:33.041Z,6.960144
2023-04-12T06:20:41.726Z,6.839294
2023-04-12T06:21:51.430Z,6.970215
2023-04-12T06:23:01.125Z,6.929932
2023-04-12T06:24:08.880Z,6.839294
2023-04-12T06:25:17.546Z,6.768799
2023-04-12T06:26:30.380Z,6.78894
2023-04-12T06:27:38.010Z,6.929932
2023-04-12T06:28:47.730Z,7.020569
2023-04-12T06:29:56.396Z,6.950073
2023-04-12T06:31:06.078Z,6.950073
2023-04-12T06:32:15.756Z,6.889648
2023-04-12T06:33:25.483Z,6.990356
2023-04-12T06:34:35.154Z,7.020569
2023-04-12T06:35:43.894Z,6.960144
2023-04-12T06:36:51.544Z,6.960144
2023-04-12T06:38:01.250Z,6.960144
2023-04-12T06:39:10.002Z,7.050781
2023-04-12T06:40:18.745Z,7.101135
2023-04-12T06:41:28.381Z,7.232056
2023-04-12T06:42:38.040Z,7.332764
2023-04-12T06:43:47.964Z,7.362976
2023-04-12T06:44:56.634Z,7.332764
2023-04-12T06:46:05.332Z,7.393188
2023-04-12T06:47:15.032Z,7.514038
2023-04-12T06:48:23.781Z,7.433472
2023-04-12T06:49:32.632Z,7.53418
2023-04-12T06:50:42.196Z,7.453613
2023-04-12T06:51:51.856Z,7.483826
2023-04-12T06:53:01.682Z,7.514038
2023-04-12T06:54:10.374Z,7.393188
2023-04-12T06:55:19.072Z,7.574463
2023-04-12T06:56:28.772Z,7.584534
2023-04-12T06:57:38.741Z,7.755737
2023-04-12T06:58:48.177Z,7.725525
2023-04-12T06:59:57.864Z,7.614746
2023-04-12T07:01:06.584Z,7.655029
2023-04-12T07:02:16.253Z,7.514038
2023-04-12T07:03:24.998Z,7.614746
2023-04-12T07:04:33.742Z,7.503967
2023-04-12T07:05:43.350Z,7.473755
2023-04-12T07:06:51.041Z,7.403259
2023-04-12T07:07:59.765Z,7.503967
2023-04-12T07:09:09.504Z,7.503967
2023-04-12T07:10:17.200Z,7.614746
2023-04-12T07:11:26.930Z,7.655029
2023-04-12T07:12:35.889Z,7.503967
2023-04-12T07:13:44.358Z,7.574463
2023-04-12T07:14:54.089Z,7.6651
2023-04-12T07:16:02.772Z,7.574463
2023-04-12T07:17:11.497Z,7.574463
2023-04-12T07:18:21.264Z,7.6651
2023-04-12T07:19:27.985Z,7.765808
2023-04-12T07:20:37.694Z,7.745667
2023-04-12T07:21:46.369Z,7.78595
2023-04-12T07:22:55.052Z,7.997437
2023-04-12T07:24:04.772Z,7.826233
2023-04-12T07:25:13.503Z,7.715454
2023-04-12T07:26:22.206Z,7.765808
2023-04-12T07:27:31.926Z,7.846375
2023-04-12T07:28:39.722Z,7.866516
2023-04-12T07:29:49.329Z,7.926941
2023-04-12T07:30:58.032Z,7.926941
2023-04-12T07:32:05.745Z,7.78595
2023-04-12T07:33:19.412Z,7.826233
2023-04-12T07:34:25.357Z,7.906799
2023-04-12T07:35:34.263Z,7.906799
2023-04-12T07:36:43.972Z,7.967224
2023-04-12T07:37:51.655Z,7.866516
2023-04-12T07:39:00.521Z,7.765808
2023-04-12T07:40:10.081Z,7.926941
2023-04-12T07:41:17.784Z,8.128357
2023-04-12T07:42:26.481Z,8.007507
2023-04-12T07:43:36.198Z,7.967224
2023-04-12T07:44:43.917Z,8.158569
2023-04-12T07:45:53.672Z,8.098145
2023-04-12T07:47:02.352Z,8.118286
2023-04-12T07:48:11.076Z,8.118286
2023-04-12T07:49:20.850Z,8.269348
2023-04-12T07:50:28.538Z,8.359985
2023-04-12T07:51:38.278Z,8.380127
2023-04-12T07:52:48.013Z,8.370056
2023-04-12T07:53:56.926Z,8.410339
2023-04-12T07:55:06.464Z,8.480835
2023-04-12T07:56:15.157Z,8.490906
2023-04-12T07:57:23.870Z,8.460693
2023-04-12T07:58:33.562Z,8.521118
2023-04-12T07:59:41.310Z,8.450623
2023-04-12T08:00:51.094Z,8.581543
2023-04-12T08:02:02.003Z,8.662109
2023-04-12T08:03:09.599Z,8.551331
2023-04-12T08:04:19.344Z,8.551331
2023-04-12T08:05:27.989Z,8.662109
2023-04-12T08:06:36.802Z,8.732605
2023-04-12T08:07:46.518Z,8.762817
2023-04-12T08:08:54.212Z,8.913879
2023-04-12T08:10:02.989Z,8.974304
2023-04-12T08:11:12.715Z,8.853455
2023-04-12T08:12:20.400Z,8.79303
2023-04-12T08:13:30.102Z,8.843384
2023-04-12T08:14:40.916Z,8.67218
2023-04-12T08:15:48.566Z,8.480835
2023-04-12T08:16:58.608Z,8.490906
2023-04-12T08:18:08.064Z,8.440552
2023-04-12T08:19:16.759Z,8.531189
2023-04-12T08:20:26.443Z,8.631897
2023-04-12T08:21:35.181Z,8.641968
2023-04-12T08:22:44.899Z,8.67218
2023-04-12T08:23:53.621Z,8.79303
2023-04-12T08:25:02.405Z,8.92395
2023-04-12T08:26:12.081Z,8.893738
2023-04-12T08:27:20.818Z,8.913879
2023-04-12T08:28:30.550Z,8.954163
2023-04-12T08:29:40.391Z,9.004517
2023-04-12T08:30:49.147Z,8.893738
2023-04-12T08:31:58.860Z,9.004517
2023-04-12T08:33:07.675Z,9.135437
2023-04-12T08:34:16.371Z,8.893738
2023-04-12T08:35:26.079Z,8.79303
2023-04-12T08:36:34.788Z,8.843384
2023-04-12T08:37:43.634Z,8.823242
2023-04-12T08:38:53.332Z,8.813171
2023-04-12T08:40:03.078Z,8.883667
2023-04-12T08:41:13.409Z,8.823242
2023-04-12T08:42:22.499Z,8.873596
2023-04-12T08:43:32.183Z,9.024658
2023-04-12T08:44:41.853Z,9.034729
2023-04-12T08:45:49.555Z,9.004517
2023-04-12T08:46:59.333Z,9.205933
2023-04-12T08:48:09.020Z,9.226074
2023-04-12T08:49:17.869Z,9.336853
2023-04-12T08:50:27.500Z,9.246216
2023-04-12T08:51:37.247Z,9.17572
2023-04-12T08:52:44.940Z,9.125366
2023-04-12T08:53:53.606Z,9.105225
2023-04-12T08:55:01.352Z,9.004517
2023-04-12T08:56:10.009Z,8.92395
2023-04-12T08:57:19.717Z,9.0448
2023-04-12T08:58:26.442Z,9.064941
2023-04-12T08:59:35.161Z,9.135437
2023-04-12T09:00:43.836Z,9.034729
2023-04-12T09:01:53.606Z,9.004517
2023-04-12T09:03:02.447Z,9.246216
2023-04-12T09:04:10.223Z,9.246216
2023-04-12T09:05:18.959Z,9.336853
2023-04-12T09:06:28.414Z,9.316711
2023-04-12T09:07:37.293Z,9.256287
2023-04-12T09:08:46.946Z,9.467773
2023-04-12T09:09:55.781Z,9.638977
2023-04-12T09:11:03.377Z,9.54834
2023-04-12T09:12:13.052Z,9.578552
2023-04-12T09:13:20.744Z,9.659119
2023-04-12T09:14:29.408Z,9.689331
2023-04-12T09:15:39.112Z,9.860535
2023-04-12T09:16:46.894Z,9.951172
2023-04-12T09:17:56.665Z,9.790039
2023-04-12T09:19:05.331Z,9.860535
2023-04-12T09:20:14.079Z,9.840393
2023-04-12T09:21:23.846Z,9.830322
2023-04-12T09:22:33.692Z,9.941101
2023-04-12T09:23:43.364Z,10.011597
2023-04-12T09:24:53.203Z,9.971313
2023-04-12T09:26:02.901Z,10.092163
2023-04-12T09:27:12.611Z,10.4245
2023-04-12T09:28:22.327Z,10.414429
2023-04-12T09:29:30.059Z,10.404358
2023-04-12T09:30:39.814Z,10.505066
2023-04-12T09:31:48.547Z,10.384216
2023-04-12T09:32:58.292Z,10.152588
2023-04-12T09:34:08.048Z,10.05188
2023-04-12T09:35:16.753Z,10.343933
2023-04-12T09:36:26.585Z,10.484924
2023-04-12T09:37:36.262Z,10.595703
2023-04-12T09:38:44.026Z,10.756836
2023-04-12T09:39:52.729Z,11.018677
2023-04-12T09:41:01.452Z,11.099243
2023-04-12T09:42:18.481Z,11.169739
2023-04-12T09:43:20.814Z,11.290588
2023-04-12T09:44:29.545Z,11.270447
2023-04-12T09:45:37.302Z,11.351013
2023-04-12T09:46:48.263Z,11.471863
2023-04-12T09:47:55.852Z,11.703491
2023-04-12T09:49:04.437Z,11.401367
2023-04-12T09:50:14.157Z,11.411438
2023-04-12T09:51:21.837Z,11.471863
2023-04-12T09:52:32.435Z,11.451721
2023-04-12T09:53:40.268Z,11.290588
2023-04-12T09:54:49.008Z,11.290588
2023-04-12T09:55:58.720Z,11.169739
2023-04-12T09:57:06.404Z,11.330872
2023-04-12T09:58:15.152Z,11.371155
2023-04-12T09:59:24.857Z,11.220093
2023-04-12T10:00:33.536Z,11.451721
2023-04-12T10:01:43.276Z,11.68335
2023-04-12T10:02:52.593Z,11.753845
2023-04-12T10:04:01.781Z,11.663208
2023-04-12T10:05:11.381Z,11.804199
2023-04-12T10:06:19.030Z,11.81427
2023-04-12T10:07:28.831Z,11.904907
2023-04-12T10:08:38.576Z,12.06604
2023-04-12T10:09:47.212Z,12.44873
2023-04-12T10:10:56.944Z,12.418518
2023-04-12T10:12:04.693Z,12.609863
2023-04-12T10:13:12.392Z,12.901917
2023-04-12T10:14:22.037Z,13.052979
2023-04-12T10:15:30.783Z,13.032837
2023-04-12T10:16:39.547Z,13.284607
2023-04-12T10:17:49.297Z,13.536377
2023-04-12T10:18:59.029Z,13.707581
2023-04-12T10:20:08.627Z,13.82843
2023-04-12T10:21:17.362Z,13.848572
2023-04-12T10:22:26.031Z,13.868713
2023-04-12T10:23:35.745Z,13.435669
2023-04-12T10:24:44.509Z,13.667297
2023-04-12T10:25:55.285Z,13.536377
2023-04-12T10:27:02.873Z,13.385315
2023-04-12T10:28:10.584Z,13.596802
2023-04-12T10:29:19.235Z,13.858643
2023-04-12T10:30:29.001Z,14.029846
2023-04-12T10:31:37.748Z,14.100342
2023-04-12T10:32:47.429Z,13.919067
2023-04-12T10:33:55.046Z,13.717651
2023-04-12T10:35:04.781Z,13.647156
2023-04-12T10:36:14.586Z,14.029846
2023-04-12T10:37:23.244Z,14.321899
2023-04-12T10:38:35.322Z,14.624023
2023-04-12T10:39:43.669Z,14.664307
2023-04-12T10:40:51.407Z,14.916077
2023-04-12T10:42:01.213Z,14.936218
2023-04-12T10:43:08.932Z,14.845581
2023-04-12T10:44:18.682Z,15.20813
2023-04-12T10:45:28.340Z,15.4599
2023-04-12T10:46:37.107Z,15.510254
2023-04-12T10:47:46.826Z,15.510254
2023-04-12T10:48:54.547Z,15.359192
2023-04-12T10:50:03.175Z,15.439758
2023-04-12T10:51:12.917Z,15.268555
2023-04-12T10:52:21.565Z,15.187988
2023-04-12T10:53:30.238Z,15.520325
2023-04-12T10:54:38.879Z,15.469971
2023-04-12T10:55:46.643Z,15.822449
2023-04-12T10:56:56.349Z,15.510254
2023-04-12T10:58:06.032Z,14.936218
2023-04-12T10:59:15.734Z,15.20813
2023-04-12T11:00:26.411Z,15.177917
2023-04-12T11:01:36.033Z,14.996643
2023-04-12T11:02:43.781Z,14.986572
2023-04-12T11:03:53.457Z,15.107422
2023-04-12T11:05:01.121Z,15.147705
2023-04-12T11:06:26.347Z,15.187988
2023-04-12T11:07:21.500Z,14.936218
2023-04-12T11:08:30.153Z,14.996643
2023-04-12T11:09:39.863Z,15.08728
2023-04-12T11:10:48.543Z,15.278625
2023-04-12T11:11:57.283Z,15.308838
2023-04-12T11:13:07.913Z,15.429688
2023-04-12T11:14:16.584Z,14.986572
2023-04-12T11:15:26.848Z,14.654236
2023-04-12T11:16:37.441Z,14.553528
2023-04-12T11:17:46.105Z,14.33197
2023-04-12T11:18:55.919Z,14.664307
2023-04-12T11:20:03.395Z,14.815369
2023-04-12T11:21:13.085Z,14.83551
2023-04-12T11:22:22.846Z,14.986572
2023-04-12T11:23:31.517Z,14.734802
2023-04-12T11:24:41.234Z,14.724731
2023-04-12T11:25:49.948Z,14.503174
2023-04-12T11:26:58.604Z,14.45282
2023-04-12T11:28:17.487Z,14.70459
2023-04-12T11:29:19.014Z,14.906006
2023-04-12T11:30:27.615Z,14.875793
2023-04-12T11:31:37.388Z,15.026855
2023-04-12T11:32:47.068Z,14.775085
2023-04-12T11:33:56.715Z,14.83551
2023-04-12T11:35:05.409Z,14.805298
2023-04-12T11:36:13.092Z,14.83551
2023-04-12T11:37:22.783Z,15.016785
2023-04-12T11:38:31.462Z,15.026855
2023-04-12T11:39:40.156Z,14.95636
2023-04-12T11:40:49.868Z,14.885864
2023-04-12T11:41:58.611Z,14.724731
2023-04-12T11:43:07.306Z,14.684448
2023-04-12T11:44:17.017Z,14.694519
2023-04-12T11:45:24.728Z,14.724731
2023-04-12T11:46:33.379Z,14.845581
2023-04-12T11:47:43.072Z,14.875793
2023-04-12T11:48:50.765Z,14.603882
2023-04-12T11:50:00.459Z,14.684448
2023-04-12T11:51:11.554Z,14.775085
2023-04-12T11:52:17.861Z,14.734802
2023-04-12T11:53:27.604Z,14.875793
2023-04-12T11:54:36.280Z,15.097351
2023-04-12T11:55:44.982Z,14.916077
2023-04-12T11:56:54.740Z,14.906006
2023-04-12T11:58:03.419Z,14.805298
2023-04-12T11:59:13.065Z,15.218201
2023-04-12T12:00:22.741Z,15.218201
2023-04-12T12:01:33.658Z,14.845581
2023-04-12T12:02:52.442Z,14.845581
2023-04-12T12:03:54.101Z,14.855652
2023-04-12T12:05:03.007Z,14.70459
2023-04-12T12:06:12.804Z,14.775085
2023-04-12T12:07:20.432Z,15.067139
2023-04-12T12:08:29.728Z,15.399475
2023-04-12T12:09:38.422Z,15.651245
2023-04-12T12:11:00.421Z,15.540466
2023-04-12T12:11:56.788Z,15.570679
2023-04-12T12:13:05.497Z,15.439758
2023-04-12T12:14:15.145Z,15.510254
2023-04-12T12:15:24.831Z,15.540466
2023-04-12T12:16:33.637Z,15.429688
2023-04-12T12:17:43.352Z,15.268555
2023-04-12T12:18:53.178Z,15.369263
2023-04-12T12:20:01.622Z,15.419617
2023-04-12T12:21:11.295Z,15.610962
2023-04-12T12:22:19.025Z,15.671387
2023-04-12T12:23:27.688Z,15.651245
2023-04-12T12:24:39.857Z,15.731812
2023-04-12T12:25:47.084Z,15.721741
2023-04-12T12:26:57.705Z,15.772095
2023-04-12T12:28:06.466Z,15.641174
2023-04-12T12:29:15.139Z,15.419617
2023-04-12T12:30:24.866Z,15.369263
2023-04-12T12:31:32.552Z,15.490112
2023-04-12T12:32:42.287Z,15.490112
2023-04-12T12:33:52.046Z,15.4599
2023-04-12T12:35:00.667Z,15.822449
2023-04-12T12:36:10.340Z,15.772095
2023-04-12T12:37:19.043Z,15.772095
2023-04-12T12:38:32.310Z,15.802307
2023-04-12T12:39:38.378Z,16.195068
2023-04-12T12:40:46.106Z,16.487122
2023-04-12T12:41:54.763Z,16.356201
2023-04-12T12:43:04.488Z,16.567688
2023-04-12T12:44:13.154Z,16.527405
2023-04-12T12:45:22.839Z,16.738892
2023-04-12T12:46:48.717Z,17.020874
2023-04-12T12:47:43.273Z,17.443848
2023-04-12T12:48:52.906Z,17.735901
2023-04-12T12:50:01.634Z,17.645264
2023-04-12T12:51:10.239Z,17.786255
2023-04-12T12:52:19.916Z,17.796326
2023-04-12T12:53:29.618Z,17.917175
2023-04-12T12:54:41.358Z,17.917175
2023-04-12T12:55:48.947Z,18.09845
2023-04-12T12:56:56.625Z,18.148804
2023-04-12T12:58:08.254Z,18.370361
2023-04-12T12:59:15.041Z,18.551636
2023-04-12T13:00:22.700Z,18.249512
2023-04-12T13:01:32.461Z,17.997742
2023-04-12T13:02:41.233Z,17.544556
2023-04-12T13:03:51.103Z,17.333069
2023-04-12T13:05:00.564Z,17.60498
2023-04-12T13:06:10.244Z,17.59491
2023-04-12T13:07:19.956Z,17.494202
2023-04-12T13:08:28.689Z,17.776184
2023-04-12T13:09:38.347Z,17.947388
2023-04-12T13:10:48.037Z,17.524414
2023-04-12T13:11:55.719Z,17.524414
2023-04-12T13:13:05.415Z,17.665405
2023-04-12T13:14:15.082Z,17.705688
2023-04-12T13:15:24.750Z,17.816467
2023-04-12T13:16:34.468Z,17.84668
2023-04-12T13:17:42.131Z,17.735901
2023-04-12T13:18:51.809Z,17.312927
2023-04-12T13:20:01.534Z,16.940308
2023-04-12T13:21:09.263Z,16.426697
2023-04-12T13:22:19.033Z,16.225281
2023-04-12T13:23:28.640Z,16.34613
2023-04-12T13:24:36.340Z,16.527405
2023-04-12T13:25:45.998Z,16.71875